Time;durP1;ratioP1;P1;durP2;ratioP2;P2;SDS_P1;SDS_P2;PMS_P1;PMS_P2;Temp;Humidity;BMP_temperature;BMP_pressure;BME280_temperature;BME280_humidity;BME280_pressure;Samples;Min_cycle;Max_cycle;Signal;HPM_P1;HPM_P2
2023/10/23 00:01:38;;;;;;;1.50;1.10;;;;;;;17.15;54.17;97516.25;103640;1277;61429;-41
2023/10/23 00:04:05;;;;;;;1.30;0.90;;;;;;;17.15;54.22;97513.30;103765;1281;72518;-41
2023/10/23 00:06:34;;;;;;;1.70;1.10;;;;;;;17.15;54.13;97515.23;103857;1282;63923;-41
2023/10/23 00:09:00;;;;;;;1.50;1.10;;;;;;;17.15;54.22;97519.64;103747;1277;72696;-41
2023/10/23 00:11:28;;;;;;;1.50;1.10;;;;;;;17.15;54.15;97518.40;103695;1281;61310;-41
2023/10/23 00:13:55;;;;;;;1.20;1.00;;;;;;;17.14;54.16;97520.32;103719;1277;61477;-41
2023/10/23 00:16:22;;;;;;;1.50;1.20;;;;;;;17.14;54.13;97523.02;103841;1279;74665;-41
2023/10/23 00:18:49;;;;;;;1.80;1.20;;;;;;;17.15;54.20;97522.56;103978;1282;66363;-41
2023/10/23 00:21:16;;;;;;;1.30;1.00;;;;;;;17.14;54.13;97518.85;103848;1277;72697;-41
2023/10/23 00:23:42;;;;;;;1.80;1.40;;;;;;;17.15;54.16;97522.94;103733;1282;61334;-43
2023/10/23 00:26:09;;;;;;;1.20;1.10;;;;;;;17.14;54.10;97523.56;103760;1278;61291;-41
2023/10/23 00:28:38;;;;;;;2.10;1.30;;;;;;;17.14;54.19;97522.63;103796;1278;74487;-41
2023/10/23 00:31:04;;;;;;;1.40;1.10;;;;;;;17.14;54.18;97529.13;103869;1282;65515;-41
2023/10/23 00:33:31;;;;;;;1.90;1.00;;;;;;;17.15;54.19;97534.31;103911;1277;71419;-41
2023/10/23 00:35:59;;;;;;;1.40;1.20;;;;;;;17.14;54.17;97535.09;103944;1282;61356;-40
2023/10/23 00:38:28;;;;;;;2.10;1.20;;;;;;;17.14;54.16;97534.00;103727;1277;61402;-41
2023/10/23 00:40:55;;;;;;;1.20;1.00;;;;;;;17.15;54.17;97536.41;103699;1277;74430;-41
2023/10/23 00:43:23;;;;;;;1.40;1.10;;;;;;;17.14;54.19;97534.39;103655;1282;66100;-41
2023/10/23 00:45:59;;;;;;;4.00;1.10;;;;;;;17.14;54.21;97535.54;103784;1277;72472;-41
2023/10/23 00:48:26;;;;;;;1.00;0.90;;;;;;;17.14;54.23;97539.23;103708;1281;61284;-41
2023/10/23 00:50:58;;;;;;;1.30;1.10;;;;;;;17.14;54.26;97541.87;104036;1277;61379;-41
2023/10/23 00:53:26;;;;;;;1.80;1.30;;;;;;;17.14;54.26;97544.96;103962;1281;74606;-40
2023/10/23 00:55:53;;;;;;;1.40;1.10;;;;;;;17.13;54.18;97544.88;104026;1277;66205;-41
2023/10/23 00:58:20;;;;;;;1.00;0.90;;;;;;;17.14;54.16;97544.25;103922;1277;71511;-41
2023/10/23 01:00:48;;;;;;;2.10;1.00;;;;;;;17.14;54.14;97544.90;103836;1283;61260;-41
2023/10/23 01:03:14;;;;;;;1.00;0.90;;;;;;;17.15;54.18;97546.29;103831;1277;61387;-41
2023/10/23 01:05:42;;;;;;;1.00;0.90;;;;;;;17.14;54.24;97547.73;104028;1281;74692;-41
2023/10/23 01:08:08;;;;;;;1.10;0.90;;;;;;;17.14;54.25;97550.76;104221;1277;63958;-42
2023/10/23 01:10:35;;;;;;;1.70;1.00;;;;;;;17.14;54.24;97553.08;103980;1278;72730;-42
2023/10/23 01:13:08;;;;;;;2.00;1.30;;;;;;;17.14;54.17;97550.91;103990;1282;61285;-43
2023/10/23 01:15:35;;;;;;;1.50;1.00;;;;;;;17.15;54.20;97551.31;104192;1277;61373;-42
2023/10/23 01:18:02;;;;;;;1.90;0.90;;;;;;;17.14;54.18;97548.68;103731;1282;74438;-42
2023/10/23 01:20:30;;;;;;;1.30;1.00;;;;;;;17.14;54.13;97552.06;104097;1280;65061;-40
2023/10/23 01:22:57;;;;;;;1.20;0.80;;;;;;;17.14;54.20;97555.09;103715;1277;72636;-41
2023/10/23 01:25:24;;;;;;;1.00;0.90;;;;;;;17.14;54.24;97556.64;104419;1280;61356;-41
2023/10/23 01:27:51;;;;;;;2.00;1.10;;;;;;;17.14;54.23;97551.84;103957;1277;61361;-41
2023/10/23 01:30:18;;;;;;;1.10;1.00;;;;;;;17.14;54.19;97555.46;103954;1283;74662;-41
2023/10/23 01:32:44;;;;;;;3.10;1.10;;;;;;;17.14;54.17;97557.79;103930;1282;66161;-41
2023/10/23 01:35:12;;;;;;;1.90;1.30;;;;;;;17.14;54.15;97558.81;103985;1277;72502;-41
2023/10/23 01:37:41;;;;;;;1.10;0.80;;;;;;;17.14;54.13;97560.66;103973;1282;61263;-40
2023/10/23 01:40:09;;;;;;;1.10;1.00;;;;;;;17.13;54.22;97566.52;103932;1282;61391;-41
2023/10/23 01:42:35;;;;;;;1.20;1.00;;;;;;;17.13;54.20;97569.61;103427;1283;74667;-43
2023/10/23 01:45:03;;;;;;;1.70;1.20;;;;;;;17.14;54.26;97572.85;103662;1281;66296;-43
2023/10/23 01:47:30;;;;;;;1.30;1.10;;;;;;;17.13;54.19;97572.48;103722;1277;71612;-41
2023/10/23 01:49:57;;;;;;;4.20;1.00;;;;;;;17.13;54.11;97572.15;103710;1290;61270;-41
2023/10/23 01:52:23;;;;;;;1.40;1.10;;;;;;;17.14;54.21;97570.14;103762;1277;61383;-41
2023/10/23 01:54:50;;;;;;;1.10;0.90;;;;;;;17.13;54.23;97576.48;103520;1282;74723;-41
2023/10/23 01:57:17;;;;;;;1.10;1.00;;;;;;;17.13;54.20;97572.55;103755;1283;65919;-41
2023/10/23 01:59:44;;;;;;;1.30;1.00;;;;;;;17.13;54.24;97574.15;103779;1277;72697;-41
2023/10/23 02:02:11;;;;;;;1.10;0.80;;;;;;;17.13;54.15;97574.54;103765;1281;61336;-42
2023/10/23 02:04:39;;;;;;;1.00;0.90;;;;;;;17.13;54.26;97578.73;103663;1277;61362;-42
2023/10/23 02:07:06;;;;;;;1.40;1.10;;;;;;;17.13;54.18;97578.64;103730;1277;74647;-42
2023/10/23 02:09:33;;;;;;;1.20;1.00;;;;;;;17.13;54.14;97577.73;104018;1283;65893;-42
2023/10/23 02:12:01;;;;;;;1.10;0.90;;;;;;;17.13;54.24;97579.89;103898;1277;72850;-42
2023/10/23 02:14:28;;;;;;;1.20;0.80;;;;;;;17.13;54.19;97584.99;103958;1281;61265;-42
2023/10/23 02:16:55;;;;;;;1.40;0.90;;;;;;;17.13;54.22;97587.15;103815;1279;61564;-42
2023/10/23 02:19:21;;;;;;;1.30;1.00;;;;;;;17.13;54.19;97589.70;103724;1278;74496;-40
2023/10/23 02:21:51;;;;;;;1.10;1.00;;;;;;;17.13;54.14;97590.40;103881;1283;66136;-42
2023/10/23 02:24:19;;;;;;;1.40;1.00;;;;;;;17.13;54.25;97599.67;103946;1277;73695;-41
2023/10/23 02:26:47;;;;;;;0.90;0.70;;;;;;;17.13;54.21;97603.99;103684;1283;61273;-41
2023/10/23 02:29:13;;;;;;;1.60;1.00;;;;;;;17.12;54.13;97603.06;103723;1277;61371;-42
2023/10/23 02:31:40;;;;;;;1.20;0.90;;;;;;;17.13;54.19;97605.71;103857;1281;74446;-42
2023/10/23 02:34:07;;;;;;;1.00;0.90;;;;;;;17.12;54.21;97606.08;103915;1283;65210;-41
2023/10/23 02:36:33;;;;;;;1.60;0.90;;;;;;;17.13;54.13;97607.79;103906;1277;72646;-40
2023/10/23 02:39:00;;;;;;;1.80;0.90;;;;;;;17.13;54.26;97611.56;103787;1282;61262;-43
2023/10/23 02:41:30;;;;;;;1.20;0.90;;;;;;;17.12;54.17;97608.23;103760;1281;61396;-42
2023/10/23 02:43:57;;;;;;;0.80;0.80;;;;;;;17.13;54.29;97605.85;103809;1282;74425;-42
2023/10/23 02:46:24;;;;;;;1.20;0.90;;;;;;;17.12;54.22;97607.52;103901;1280;66076;-42
2023/10/23 02:48:51;;;;;;;2.20;1.20;;;;;;;17.12;54.24;97612.80;103865;1277;72689;-41
2023/10/23 02:51:18;;;;;;;1.50;1.10;;;;;;;17.12;54.20;97618.27;103692;1283;61358;-41
2023/10/23 02:53:45;;;;;;;1.40;1.00;;;;;;;17.12;54.18;97622.68;103977;1277;61768;-41
2023/10/23 02:56:13;;;;;;;1.10;0.80;;;;;;;17.12;54.29;97622.14;103785;1283;74477;-41
2023/10/23 02:58:40;;;;;;;0.60;0.60;;;;;;;17.12;54.19;97623.69;103786;1290;66226;-41
2023/10/23 03:01:20;;;;;;;1.00;0.90;;;;;;;17.13;54.28;97626.80;103866;1278;72574;-41
2023/10/23 03:03:47;;;;;;;1.10;0.70;;;;;;;17.12;54.30;97630.40;103936;1283;61279;-41
2023/10/23 03:06:14;;;;;;;0.70;0.60;;;;;;;17.12;54.15;97634.90;103964;1283;61245;-41
2023/10/23 03:08:41;;;;;;;1.00;0.80;;;;;;;17.12;54.18;97635.60;103804;1277;74506;-41
2023/10/23 03:11:07;;;;;;;0.80;0.70;;;;;;;17.11;54.26;97634.27;103737;1282;66179;-40
2023/10/23 03:13:34;;;;;;;1.20;0.90;;;;;;;17.12;54.25;97634.43;103693;1281;72614;-41
2023/10/23 03:16:01;;;;;;;1.70;0.90;;;;;;;17.12;54.23;97638.62;103816;1282;61294;-41
2023/10/23 03:18:27;;;;;;;2.60;0.90;;;;;;;17.12;54.22;97636.83;104026;1277;61285;-41
2023/10/23 03:21:01;;;;;;;1.10;0.90;;;;;;;17.12;54.25;97639.39;103958;1282;74556;-41
2023/10/23 03:23:28;;;;;;;1.60;1.00;;;;;;;17.12;54.26;97645.80;103943;1283;66350;-41
2023/10/23 03:25:56;;;;;;;0.80;0.70;;;;;;;17.12;54.26;97648.58;103984;1281;72683;-41
2023/10/23 03:28:23;;;;;;;2.10;0.90;;;;;;;17.12;54.18;97649.20;103671;1283;61298;-41
2023/10/23 03:30:50;;;;;;;1.60;0.90;;;;;;;17.11;54.28;97649.04;103957;1277;61380;-41
2023/10/23 03:33:16;;;;;;;4.10;1.00;;;;;;;17.12;54.25;97649.44;103729;1290;74623;-41
2023/10/23 03:35:44;;;;;;;0.90;0.70;;;;;;;17.12;54.24;97651.14;103698;1283;65793;-42
2023/10/23 03:38:12;;;;;;;1.10;0.90;;;;;;;17.12;54.26;97651.61;103644;1277;72466;-41
2023/10/23 03:40:38;;;;;;;1.00;0.90;;;;;;;17.12;54.25;97652.45;103848;1283;61330;-41
2023/10/23 03:43:05;;;;;;;0.90;0.80;;;;;;;17.11;54.22;97656.99;103823;1276;61357;-41
2023/10/23 03:45:36;;;;;;;1.40;0.90;;;;;;;17.11;54.28;97656.06;103933;1277;75065;-42
2023/10/23 03:48:03;;;;;;;1.10;0.80;;;;;;;17.12;54.24;97656.38;103664;1281;65966;-41
2023/10/23 03:50:30;;;;;;;0.80;0.70;;;;;;;17.12;54.28;97662.88;103986;1278;72487;-41
2023/10/23 03:52:57;;;;;;;1.30;0.90;;;;;;;17.11;54.27;97667.66;103961;1290;61381;-41
2023/10/23 03:55:24;;;;;;;0.80;0.80;;;;;;;17.12;54.28;97667.52;104653;1282;61211;-42
2023/10/23 03:57:51;;;;;;;0.90;0.80;;;;;;;17.12;54.32;97666.77;104154;1282;73159;-42
2023/10/23 04:00:18;;;;;;;1.30;0.90;;;;;;;17.12;54.24;97668.92;103965;1282;65564;-41
2023/10/23 04:02:45;;;;;;;2.00;0.70;;;;;;;17.12;54.36;97674.18;104013;1283;72646;-44
2023/10/23 04:05:12;;;;;;;1.60;0.70;;;;;;;17.12;54.26;97667.69;103989;1283;61371;-42
2023/10/23 04:07:39;;;;;;;1.20;0.90;;;;;;;17.12;54.26;97665.84;103977;1277;61395;-40
2023/10/23 04:10:07;;;;;;;0.80;0.80;;;;;;;17.12;54.28;97665.84;103708;1282;74632;-41
2023/10/23 04:12:34;;;;;;;0.80;0.80;;;;;;;17.12;54.29;97665.05;103716;1282;65392;-41
2023/10/23 04:15:01;;;;;;;1.10;0.90;;;;;;;17.12;54.23;97664.29;103680;1283;72432;-41
2023/10/23 04:17:28;;;;;;;1.10;0.90;;;;;;;17.12;54.23;97669.24;103918;1282;61320;-41
2023/10/23 04:19:55;;;;;;;0.80;0.70;;;;;;;17.12;54.19;97671.24;103751;1281;61297;-42
2023/10/23 04:22:21;;;;;;;1.10;0.90;;;;;;;17.12;54.26;97677.50;103721;1283;75027;-41
2023/10/23 04:24:48;;;;;;;0.80;0.70;;;;;;;17.12;54.27;97673.17;103688;1283;64731;-41
2023/10/23 04:27:15;;;;;;;0.70;0.60;;;;;;;17.11;54.19;97675.02;104017;1278;72135;-41
2023/10/23 04:29:42;;;;;;;0.80;0.80;;;;;;;17.11;54.24;97678.10;103881;1290;61356;-41
2023/10/23 04:32:09;;;;;;;1.00;0.80;;;;;;;17.12;54.28;97680.13;103995;1282;61383;-41
2023/10/23 04:34:35;;;;;;;0.90;0.80;;;;;;;17.12;54.28;97684.14;103812;1282;74628;-41
2023/10/23 04:37:03;;;;;;;3.00;1.00;;;;;;;17.12;54.27;97686.08;103977;1282;65130;-40
2023/10/23 04:39:30;;;;;;;1.40;0.80;;;;;;;17.12;54.28;97688.00;103887;1281;72629;-41
2023/10/23 04:41:57;;;;;;;0.90;0.70;;;;;;;17.11;54.25;97691.47;103738;1283;61313;-41
2023/10/23 04:44:25;;;;;;;1.00;0.70;;;;;;;17.11;54.23;97696.95;103595;1278;61367;-41
2023/10/23 04:46:52;;;;;;;1.20;0.90;;;;;;;17.11;54.26;97701.91;106399;1278;74560;-41
2023/10/23 04:49:18;;;;;;;1.60;0.80;;;;;;;17.12;54.23;97700.83;103601;1281;66207;-43
2023/10/23 04:51:45;;;;;;;0.60;0.60;;;;;;;17.12;54.33;97707.41;103641;1282;73038;-40
2023/10/23 04:54:12;;;;;;;1.20;0.70;;;;;;;17.12;54.29;97709.42;103834;1282;61790;-41
2023/10/23 04:56:41;;;;;;;1.30;0.90;;;;;;;17.12;54.20;97714.93;103669;1277;61328;-41
2023/10/23 04:59:08;;;;;;;1.10;0.90;;;;;;;17.12;54.30;97720.02;103825;1282;74912;-43
2023/10/23 05:01:34;;;;;;;1.10;0.90;;;;;;;17.12;54.31;97724.96;103848;1282;65791;-40
2023/10/23 05:04:01;;;;;;;0.70;0.70;;;;;;;17.12;54.26;97727.98;103743;1279;72764;-40
2023/10/23 05:06:28;;;;;;;0.90;0.70;;;;;;;17.12;54.23;97734.86;103928;1282;61402;-42
2023/10/23 05:08:55;;;;;;;0.70;0.70;;;;;;;17.12;54.24;97737.94;103657;1281;61267;-41
2023/10/23 05:11:22;;;;;;;1.00;0.80;;;;;;;17.12;54.24;97742.76;103732;1277;74670;-42
2023/10/23 05:13:49;;;;;;;0.70;0.70;;;;;;;17.12;54.33;97748.25;103656;1282;66295;-43
2023/10/23 05:16:16;;;;;;;1.00;0.70;;;;;;;17.13;54.39;97747.27;103854;1282;72378;-44
2023/10/23 05:18:44;;;;;;;1.50;0.70;;;;;;;17.14;54.44;97752.70;104183;1282;61284;-41
2023/10/23 05:21:12;;;;;;;1.00;0.80;;;;;;;17.16;54.66;97752.85;103883;1279;61422;-40
2023/10/23 05:23:41;;;;;;;2.00;0.80;;;;;;;17.18;54.62;97757.56;103794;1282;74734;-40
2023/10/23 05:26:10;;;;;;;1.00;0.80;;;;;;;17.21;54.49;97760.52;103742;1282;66139;-41
2023/10/23 05:28:40;;;;;;;1.10;0.80;;;;;;;17.24;54.57;97762.92;103733;1281;73353;-40
2023/10/23 05:31:08;;;;;;;3.40;0.80;;;;;;;17.26;54.57;97765.30;103772;1281;61298;-41
2023/10/23 05:33:35;;;;;;;3.70;0.90;;;;;;;17.28;54.68;97769.56;103546;1280;61294;-41
2023/10/23 05:36:04;;;;;;;6.20;1.00;;;;;;;17.30;54.87;97773.80;103882;1280;75611;-41
2023/10/23 05:38:31;;;;;;;1.20;1.00;;;;;;;17.32;55.08;97774.41;103745;1281;66124;-40
2023/10/23 05:40:58;;;;;;;1.10;0.80;;;;;;;17.35;55.18;97774.64;103867;1281;72370;-41
2023/10/23 05:43:26;;;;;;;1.20;0.90;;;;;;;17.36;55.20;97783.82;104414;1282;61387;-41
2023/10/23 05:45:55;;;;;;;2.60;1.10;;;;;;;17.37;55.15;97787.31;103858;1277;61361;-42
2023/10/23 05:48:23;;;;;;;1.60;0.90;;;;;;;17.38;55.17;97788.50;103826;1280;74139;-40
2023/10/23 05:51:05;;;;;;;2.30;1.00;;;;;;;17.39;55.35;97793.48;103909;1289;66019;-41
2023/10/23 05:53:33;;;;;;;2.90;1.00;;;;;;;17.40;55.84;97797.09;103839;1283;72684;-41
2023/10/23 05:56:03;;;;;;;2.20;1.10;;;;;;;17.42;56.07;97803.34;104298;1282;61460;-41
2023/10/23 05:58:34;;;;;;;2.50;1.10;;;;;;;17.43;56.29;97800.42;103531;1283;61378;-41
2023/10/23 06:01:05;;;;;;;1.30;0.90;;;;;;;17.44;56.14;97805.50;103917;1282;73970;-43
2023/10/23 06:03:35;;;;;;;2.10;1.20;;;;;;;17.44;56.06;97813.39;103828;1282;66170;-40
2023/10/23 06:06:07;;;;;;;2.30;1.00;;;;;;;17.44;56.18;97817.41;103763;1284;72701;-41
2023/10/23 06:08:37;;;;;;;1.70;1.00;;;;;;;17.44;55.99;97819.50;103618;1278;61391;-40
2023/10/23 06:11:07;;;;;;;1.60;0.90;;;;;;;17.44;56.04;97820.19;103587;1282;61304;-40
2023/10/23 06:13:33;;;;;;;2.00;1.10;;;;;;;17.43;56.03;97817.23;103792;1283;74253;-41
2023/10/23 06:16:07;;;;;;;2.30;1.30;;;;;;;17.43;56.10;97817.45;103593;1286;64998;-42
2023/10/23 06:18:34;;;;;;;2.50;1.30;;;;;;;17.43;56.05;97810.10;103656;1284;71762;-41
2023/10/23 06:21:06;;;;;;;1.90;1.00;;;;;;;17.44;56.02;97814.45;103529;1283;61276;-40
2023/10/23 06:23:39;;;;;;;2.30;1.20;;;;;;;17.44;56.06;97811.30;103559;1290;61234;-42
2023/10/23 06:26:08;;;;;;;1.90;1.10;;;;;;;17.45;56.07;97814.40;103601;1280;74648;-40
2023/10/23 06:28:35;;;;;;;1.20;0.80;;;;;;;17.45;56.04;97818.61;103811;1281;66286;-41
2023/10/23 06:31:11;;;;;;;1.60;0.90;;;;;;;17.45;56.11;97823.55;103762;1283;72437;-42
2023/10/23 06:33:46;;;;;;;1.50;1.10;;;;;;;17.45;56.12;97824.02;103714;1290;61361;-42
2023/10/23 06:36:13;;;;;;;1.30;0.90;;;;;;;17.46;56.17;97830.31;103803;1282;61346;-40
2023/10/23 06:38:41;;;;;;;2.80;1.20;;;;;;;17.47;56.12;97831.27;103654;1282;74556;-42
2023/10/23 06:41:07;;;;;;;4.10;1.10;;;;;;;17.49;56.17;97834.98;104042;1283;67259;-42
2023/10/23 06:43:37;;;;;;;2.70;1.20;;;;;;;17.49;56.08;97834.05;104487;1293;71736;-41
2023/10/23 06:46:04;;;;;;;4.70;1.20;;;;;;;17.51;56.09;97837.44;104954;1283;61338;-43
2023/10/23 06:48:32;;;;;;;3.30;0.90;;;;;;;17.51;56.06;97843.11;104450;1282;61285;-41
2023/10/23 06:51:04;;;;;;;3.80;1.00;;;;;;;17.52;56.05;97844.61;104209;1277;76933;-41
2023/10/23 06:53:34;;;;;;;2.40;0.90;;;;;;;17.53;56.07;97843.73;103720;1282;65294;-42
2023/10/23 06:56:05;;;;;;;1.60;0.90;;;;;;;17.54;55.99;97848.71;103573;1283;73001;-39
2023/10/23 06:59:11;;;;;;;6.00;1.10;;;;;;;17.56;56.03;97850.98;103966;1277;61270;-43
2023/10/23 07:01:44;;;;;;;1.60;1.10;;;;;;;17.56;55.86;97853.73;104081;1282;61241;-42
2023/10/23 07:04:12;;;;;;;2.80;0.90;;;;;;;17.57;55.93;97858.48;103841;1277;72966;-41
2023/10/23 07:06:39;;;;;;;2.40;0.90;;;;;;;17.58;55.96;97863.90;103553;1278;66595;-39
2023/10/23 07:09:14;;;;;;;1.80;1.10;;;;;;;17.60;55.89;97864.67;103906;1283;72647;-39
2023/10/23 07:11:51;;;;;;;1.60;1.00;;;;;;;17.60;55.84;97864.60;103677;1284;62375;-40
2023/10/23 07:14:18;;;;;;;3.60;1.10;;;;;;;17.60;56.02;97867.78;103496;1282;61310;-41
2023/10/23 07:16:45;;;;;;;2.30;1.10;;;;;;;17.61;55.93;97868.44;103618;1282;74717;-40
2023/10/23 07:19:12;;;;;;;3.10;1.20;;;;;;;17.61;56.00;97870.36;103465;1283;66106;-40
2023/10/23 07:21:39;;;;;;;2.30;1.10;;;;;;;17.61;55.96;97868.05;103810;1280;72413;-39
2023/10/23 07:24:06;;;;;;;2.30;0.90;;;;;;;17.62;56.00;97873.41;103610;1278;61343;-40
2023/10/23 07:26:33;;;;;;;1.30;0.80;;;;;;;17.62;55.96;97876.04;103871;1280;61319;-43
2023/10/23 07:29:00;;;;;;;3.70;1.10;;;;;;;17.62;56.03;97880.61;103679;1281;74604;-42
2023/10/23 07:31:27;;;;;;;2.00;0.90;;;;;;;17.63;56.05;97883.20;103593;1280;66087;-42
2023/10/23 07:33:53;;;;;;;1.40;0.80;;;;;;;17.63;56.08;97889.77;103740;1277;72762;-42
2023/10/23 07:36:20;;;;;;;5.00;1.10;;;;;;;17.64;56.08;97894.77;103729;1281;61309;-42
2023/10/23 07:38:47;;;;;;;5.00;1.00;;;;;;;17.64;56.26;97895.61;103552;1283;61483;-42
2023/10/23 07:41:14;;;;;;;2.00;0.90;;;;;;;17.66;56.24;97896.50;103527;1281;74603;-40
2023/10/23 07:43:41;;;;;;;1.80;0.90;;;;;;;17.68;56.33;97897.83;103623;1281;66074;-41
2023/10/23 07:46:09;;;;;;;3.90;1.20;;;;;;;17.69;56.40;97899.03;103829;1276;72382;-42
2023/10/23 07:48:43;;;;;;;2.40;1.10;;;;;;;17.71;56.55;97900.40;103566;1277;61428;-41
2023/10/23 07:51:11;;;;;;;2.30;1.00;;;;;;;17.72;56.59;97901.85;103760;1282;61199;-43
2023/10/23 07:53:37;;;;;;;4.70;1.30;;;;;;;17.75;56.75;97901.92;103487;1280;74946;-44
2023/10/23 07:56:04;;;;;;;1.50;1.00;;;;;;;17.76;56.72;97899.24;103685;1281;66308;-42
2023/10/23 07:58:31;;;;;;;2.80;0.90;;;;;;;17.78;56.85;97902.80;103564;1278;72588;-44
2023/10/23 08:01:05;;;;;;;7.70;1.40;;;;;;;17.81;56.83;97902.72;103740;1283;61825;-41
2023/10/23 08:03:33;;;;;;;1.70;1.30;;;;;;;17.83;56.95;97903.34;106016;1282;61182;-42
2023/10/23 08:06:03;;;;;;;3.70;1.00;;;;;;;17.85;56.98;97902.06;103789;1276;75099;-41
2023/10/23 08:08:40;;;;;;;4.90;1.10;;;;;;;17.87;56.97;97907.71;103574;1287;65018;-38
2023/10/23 08:11:08;;;;;;;1.70;1.00;;;;;;;17.90;57.18;97903.94;103569;1280;73050;-39
2023/10/23 08:13:35;;;;;;;5.20;1.00;;;;;;;17.92;57.21;97909.50;103640;1282;61185;-39
2023/10/23 08:16:03;;;;;;;2.50;1.10;;;;;;;17.94;57.33;97909.02;103784;1282;61398;-39
2023/10/23 08:18:30;;;;;;;10.00;1.00;;;;;;;17.95;57.28;97913.52;103603;1280;75627;-40
2023/10/23 08:21:10;;;;;;;4.30;1.30;;;;;;;17.97;57.34;97912.52;103729;1282;66449;-40
2023/10/23 08:23:39;;;;;;;3.10;0.90;;;;;;;17.99;57.33;97913.52;103538;1277;72688;-40
2023/10/23 08:26:05;;;;;;;3.30;1.20;;;;;;;18.01;57.44;97913.70;104951;1282;61602;-40
2023/10/23 08:28:32;;;;;;;2.40;1.10;;;;;;;18.03;57.43;97917.80;103443;1280;61244;-40
2023/10/23 08:31:19;;;;;;;5.30;1.20;;;;;;;18.04;57.44;97923.20;103372;1284;74777;-40
2023/10/23 08:34:04;;;;;;;4.60;1.10;;;;;;;18.06;57.59;97926.88;103500;1282;66031;-41
2023/10/23 08:36:32;;;;;;;5.90;1.20;;;;;;;18.06;57.57;97931.95;103619;1279;72733;-40
2023/10/23 08:39:02;;;;;;;3.70;1.10;;;;;;;18.09;57.98;97930.56;103276;1279;61259;-41
2023/10/23 08:41:31;;;;;;;3.60;1.90;;;;;;;18.13;58.19;97930.37;104982;1280;61566;-40
2023/10/23 08:44:01;;;;;;;8.60;1.40;;;;;;;18.20;58.25;97934.92;103521;1282;73770;-41
2023/10/23 08:46:33;;;;;;;4.40;1.50;;;;;;;18.25;58.19;97940.95;103236;1277;66344;-40
2023/10/23 08:49:03;;;;;;;3.50;1.20;;;;;;;18.30;58.19;97948.15;103315;1283;73583;-41
2023/10/23 08:51:31;;;;;;;5.90;1.00;;;;;;;18.33;58.12;97951.36;103451;1277;197353;-41
2023/10/23 08:54:12;;;;;;;4.20;1.10;;;;;;;18.36;58.15;97950.99;103770;1277;61406;-39
2023/10/23 08:56:43;;;;;;;2.90;1.20;;;;;;;18.39;58.08;97953.64;103676;1280;74678;-42
2023/10/23 08:59:14;;;;;;;6.10;1.20;;;;;;;18.42;58.04;97961.47;103576;1277;69200;-39
2023/10/23 09:01:41;;;;;;;5.10;1.20;;;;;;;18.45;58.02;97964.11;103531;1281;72734;-40
2023/10/23 09:04:10;;;;;;;4.50;1.10;;;;;;;18.47;58.02;97967.14;107669;1272;59813;-42
2023/10/23 09:06:38;;;;;;;2.60;0.90;;;;;;;18.49;58.11;97968.15;103430;1287;59811;-42
2023/10/23 09:09:10;;;;;;;6.40;1.20;;;;;;;18.52;58.09;97973.42;103711;1280;73991;-41
2023/10/23 09:11:46;;;;;;;3.40;1.10;;;;;;;18.54;58.13;97977.74;103298;1283;65578;-39
2023/10/23 09:14:25;;;;;;;2.10;1.00;;;;;;;18.56;58.09;97978.35;103562;1282;73230;-40
2023/10/23 09:16:59;;;;;;;2.60;1.10;;;;;;;18.58;58.05;97982.45;103444;1285;61398;-42
2023/10/23 09:19:39;;;;;;;3.30;1.20;;;;;;;18.59;58.13;97984.78;107259;1280;59017;-40
2023/10/23 09:22:06;;;;;;;6.60;1.10;;;;;;;18.61;58.08;97989.10;103383;1285;74727;-39
2023/10/23 09:24:35;;;;;;;3.60;1.00;;;;;;;18.62;58.08;97989.76;103501;1280;67111;-40
2023/10/23 09:27:03;;;;;;;2.40;1.00;;;;;;;18.63;58.03;97992.27;103437;1283;72458;-40
2023/10/23 09:29:30;;;;;;;3.30;1.20;;;;;;;18.64;58.12;97996.59;103476;1285;61317;-43
2023/10/23 09:31:58;;;;;;;6.70;0.90;;;;;;;18.65;58.04;97994.14;103566;1280;61332;-43
2023/10/23 09:34:29;;;;;;;4.80;1.10;;;;;;;18.65;58.04;97990.03;103678;1280;73924;-43
2023/10/23 09:37:05;;;;;;;3.30;0.90;;;;;;;18.66;58.05;97985.46;104710;1280;65635;-40
2023/10/23 09:39:37;;;;;;;4.20;1.00;;;;;;;18.66;58.05;97987.16;104364;1283;73534;-39
2023/10/23 09:42:07;;;;;;;2.00;1.00;;;;;;;18.66;57.96;97983.24;103625;1287;60479;-39
2023/10/23 09:44:36;;;;;;;3.50;1.10;;;;;;;18.67;58.11;97984.11;103558;1280;61278;-39
2023/10/23 09:47:03;;;;;;;2.60;0.90;;;;;;;18.67;58.11;97985.89;103461;1284;74694;-41
2023/10/23 09:49:31;;;;;;;2.80;1.10;;;;;;;18.68;58.22;97985.90;104276;1282;66227;-41
2023/10/23 09:51:59;;;;;;;4.00;1.00;;;;;;;18.68;58.15;97983.53;103488;1280;71596;-41
2023/10/23 09:54:26;;;;;;;3.50;1.00;;;;;;;18.70;58.22;97983.27;103674;1283;61173;-42
2023/10/23 09:56:53;;;;;;;4.20;1.10;;;;;;;18.71;58.23;97990.19;103523;1285;61340;-39
2023/10/23 09:59:26;;;;;;;2.20;0.90;;;;;;;18.73;58.30;97987.60;103302;1286;73586;-41
2023/10/23 10:01:56;;;;;;;2.30;1.10;;;;;;;18.74;58.45;97988.73;103539;1280;67193;-43
2023/10/23 10:04:29;;;;;;;7.30;0.90;;;;;;;18.77;58.48;97992.62;103988;1280;72564;-41
2023/10/23 10:07:21;;;;;;;10.70;1.10;;;;;;;18.79;58.63;97993.29;105203;1280;61271;-42
2023/10/23 10:09:48;;;;;;;4.30;1.10;;;;;;;18.81;58.52;97987.87;103754;1280;61380;-40
2023/10/23 10:12:15;;;;;;;4.90;0.90;;;;;;;18.83;58.55;97985.91;103402;1284;75221;-43
2023/10/23 10:14:42;;;;;;;3.20;1.20;;;;;;;18.84;58.52;97988.73;103198;1285;66142;-42
2023/10/23 10:17:09;;;;;;;6.30;1.10;;;;;;;18.86;58.61;97989.56;103014;1286;60967;-40
2023/10/23 10:19:37;;;;;;;5.40;1.00;;;;;;;18.86;58.73;97981.20;105253;1282;61320;-41
2023/10/23 10:22:14;;;;;;;5.80;1.50;;;;;;;18.85;58.73;97986.67;104579;1279;61314;-39
2023/10/23 10:24:41;;;;;;;11.10;1.90;;;;;;;18.86;58.84;97986.52;103590;1282;74686;-40
2023/10/23 10:27:08;;;;;;;3.90;1.30;;;;;;;18.85;58.90;97988.27;103494;1282;67061;-41
2023/10/23 10:29:35;;;;;;;3.80;1.30;;;;;;;18.85;59.01;97987.58;103733;1280;73760;-42
2023/10/23 10:32:10;;;;;;;4.70;1.20;;;;;;;18.85;59.07;97989.90;107236;1279;59346;-42
2023/10/23 10:34:52;;;;;;;7.20;1.30;;;;;;;18.85;58.99;97989.90;107302;1279;59085;-40
2023/10/23 10:37:29;;;;;;;7.00;1.40;;;;;;;18.85;59.04;97986.04;103758;1282;73667;-42
2023/10/23 10:39:55;;;;;;;6.50;1.20;;;;;;;18.85;59.11;97987.89;104832;1282;66656;-41
2023/10/23 10:42:26;;;;;;;4.50;1.20;;;;;;;18.85;59.07;97983.33;103481;1280;73728;-41
2023/10/23 10:44:59;;;;;;;4.30;1.30;;;;;;;18.86;59.06;97984.52;103781;1280;61272;-40
2023/10/23 10:47:45;;;;;;;5.30;1.10;;;;;;;18.87;58.92;97984.16;103617;1280;61259;-40
2023/10/23 10:50:12;;;;;;;4.30;1.40;;;;;;;18.86;58.84;97987.08;104038;1281;75346;-42
2023/10/23 10:52:40;;;;;;;6.00;1.10;;;;;;;18.85;58.86;97984.19;103535;1280;66278;-40
2023/10/23 10:55:08;;;;;;;3.60;1.20;;;;;;;18.84;58.72;97988.72;103490;1280;72707;-41
2023/10/23 10:57:42;;;;;;;3.50;1.10;;;;;;;18.83;58.79;97985.81;103557;1282;61282;-39
2023/10/23 11:00:11;;;;;;;;;;;;;;;18.82;58.74;97985.01;103591;1282;61289;-40
2023/10/23 11:02:37;;;;;;;1.40;0.80;;;;;;;18.81;58.72;97986.91;103609;1282;75759;-40
2023/10/23 11:05:09;;;;;;;3.30;1.00;;;;;;;18.80;58.74;97984.95;103480;1282;65264;-40
2023/10/23 11:07:37;;;;;;;5.70;1.30;;;;;;;18.79;58.69;97981.27;103458;1282;73633;-40
2023/10/23 11:10:08;;;;;;;2.60;1.10;;;;;;;18.77;58.66;97980.45;103453;1279;61406;-41
2023/10/23 11:12:35;;;;;;;2.40;1.10;;;;;;;18.77;58.58;97978.89;103491;1285;61261;-41
2023/10/23 11:15:04;;;;;;;2.10;0.80;;;;;;;18.75;58.57;97978.30;103322;1284;76893;-40
2023/10/23 11:17:33;;;;;;;4.70;1.00;;;;;;;18.75;58.57;97981.39;103443;1285;67831;-39
2023/10/23 11:20:08;;;;;;;4.80;1.50;;;;;;;18.75;58.89;97981.54;103295;1285;72858;-41
2023/10/23 11:22:37;;;;;;;4.50;1.40;;;;;;;18.78;59.49;97984.89;104069;1280;61516;-40
2023/10/23 11:25:06;;;;;;;3.00;1.00;;;;;;;18.82;59.86;97987.81;103394;1280;61381;-41
2023/10/23 11:27:33;;;;;;;2.70;1.10;;;;;;;18.87;59.99;97992.69;103798;1278;73408;-42
2023/10/23 11:30:00;;;;;;;5.90;1.30;;;;;;;18.91;60.02;97990.38;103461;1282;65896;-42
2023/10/23 11:32:27;;;;;;;3.30;1.30;;;;;;;18.93;60.04;97987.76;103395;1280;72637;-42